createdAt,value
2019-01-30T00:01:36.110Z,47.80
2019-01-30T00:04:04.663Z,44.07
2019-01-30T00:06:32.168Z,45.47
2019-01-30T00:08:59.720Z,40.17
2019-01-30T00:11:27.242Z,42.23
2019-01-30T00:13:54.762Z,45.80
2019-01-30T00:16:22.321Z,46.03
2019-01-30T00:18:49.862Z,47.47
2019-01-30T00:21:17.357Z,48.13
2019-01-30T00:23:44.906Z,43.83
2019-01-30T00:26:12.410Z,44.20
2019-01-30T00:28:40.294Z,43.63
2019-01-30T00:31:07.858Z,40.80
2019-01-30T00:33:35.378Z,45.67
2019-01-30T00:36:02.893Z,38.77
2019-01-30T00:38:30.432Z,37.00
2019-01-30T00:40:58.026Z,34.93
2019-01-30T00:43:25.590Z,32.40
2019-01-30T00:45:53.114Z,38.20
2019-01-30T00:48:20.590Z,32.73
2019-01-30T00:50:48.160Z,39.90
2019-01-30T00:53:15.686Z,35.10
2019-01-30T00:55:43.234Z,37.00
2019-01-30T00:58:10.774Z,35.77
2019-01-30T01:00:38.300Z,38.33
2019-01-30T01:03:05.798Z,34.27
2019-01-30T01:05:33.384Z,33.07
2019-01-30T01:08:00.906Z,39.60
2019-01-30T01:10:28.470Z,39.83
2019-01-30T01:12:55.969Z,35.60
2019-01-30T01:15:23.531Z,34.33
2019-01-30T01:17:51.146Z,37.40
2019-01-30T01:20:18.638Z,37.87
2019-01-30T01:22:46.304Z,37.57
2019-01-30T01:25:14.822Z,39.63
2019-01-30T01:27:42.703Z,36.20
2019-01-30T01:30:13.206Z,37.83
2019-01-30T01:32:40.770Z,44.03
2019-01-30T01:35:08.486Z,40.77
2019-01-30T01:37:36.002Z,39.80
2019-01-30T01:40:04.405Z,43.60
2019-01-30T01:42:31.928Z,51.17
2019-01-30T01:44:59.430Z,42.10
2019-01-30T01:47:27.049Z,39.43
2019-01-30T01:49:54.598Z,42.67
2019-01-30T01:52:22.107Z,47.17
2019-01-30T01:54:49.650Z,44.80
2019-01-30T01:57:17.180Z,45.23
2019-01-30T01:59:44.700Z,40.87
2019-01-30T02:02:12.226Z,48.90
2019-01-30T02:04:39.762Z,42.53
2019-01-30T02:07:07.276Z,42.37
2019-01-30T02:09:34.830Z,48.90
2019-01-30T02:12:02.322Z,45.93
2019-01-30T02:14:29.934Z,46.93
2019-01-30T02:16:57.534Z,42.80
2019-01-30T02:19:25.046Z,45.37
2019-01-30T02:21:52.567Z,50.67
2019-01-30T02:24:20.106Z,53.03
2019-01-30T02:26:47.603Z,47.53
2019-01-30T02:29:15.132Z,47.87
2019-01-30T02:31:42.703Z,52.20
2019-01-30T02:34:10.209Z,53.47
2019-01-30T02:36:55.303Z,42.13
2019-01-30T02:39:22.943Z,41.20
2019-01-30T02:41:50.996Z,40.10
2019-01-30T02:44:18.506Z,48.27
2019-01-30T02:46:46.040Z,46.27
2019-01-30T02:49:13.632Z,46.07
2019-01-30T02:51:41.182Z,47.13
2019-01-30T02:54:08.698Z,53.23
2019-01-30T02:56:36.261Z,49.30
2019-01-30T02:59:03.801Z,41.93
2019-01-30T03:01:33.120Z,46.93
2019-01-30T03:04:00.690Z,51.57
2019-01-30T03:06:28.206Z,45.97
2019-01-30T03:08:55.725Z,49.73
2019-01-30T03:11:23.282Z,46.10
2019-01-30T03:13:50.817Z,54.10
2019-01-30T03:16:18.345Z,57.00
2019-01-30T03:18:45.894Z,49.60
2019-01-30T03:21:13.413Z,50.30
2019-01-30T03:23:40.915Z,54.47
2019-01-30T03:26:08.488Z,55.87
2019-01-30T03:28:36.044Z,58.27
2019-01-30T03:31:16.748Z,60.37
2019-01-30T03:33:32.898Z,52.33
2019-01-30T03:36:00.471Z,54.33
2019-01-30T03:38:28.006Z,53.43
2019-01-30T03:40:55.729Z,58.10
2019-01-30T03:43:23.282Z,65.87
2019-01-30T03:45:50.812Z,53.23
2019-01-30T03:48:18.346Z,70.43
2019-01-30T03:50:45.905Z,66.60
2019-01-30T03:53:13.416Z,64.77
2019-01-30T03:55:41.022Z,65.03
2019-01-30T03:58:08.533Z,67.80
2019-01-30T04:00:36.042Z,70.67
2019-01-30T04:03:03.677Z,65.60
2019-01-30T04:05:31.238Z,73.33
2019-01-30T04:07:58.750Z,65.97
2019-01-30T04:10:26.274Z,65.63
2019-01-30T04:12:53.820Z,62.37
2019-01-30T04:15:21.638Z,68.23
2019-01-30T04:17:49.166Z,68.23
2019-01-30T04:20:17.858Z,65.87
2019-01-30T04:22:46.278Z,65.47
2019-01-30T04:25:13.926Z,66.47
2019-01-30T04:27:41.446Z,61.50
2019-01-30T04:30:17.622Z,79.90
2019-01-30T04:32:45.179Z,70.77
2019-01-30T04:35:12.705Z,66.70
2019-01-30T04:37:40.213Z,64.80
2019-01-30T04:40:10.233Z,58.20
2019-01-30T04:42:37.797Z,61.63
2019-01-30T04:45:07.270Z,64.20
2019-01-30T04:47:34.771Z,59.83
2019-01-30T04:50:02.519Z,66.07
2019-01-30T04:52:30.009Z,63.77
2019-01-30T04:54:57.650Z,62.47
2019-01-30T04:57:25.193Z,65.27
2019-01-30T04:59:52.697Z,73.03
2019-01-30T05:02:20.207Z,87.53
2019-01-30T05:04:47.788Z,81.97
2019-01-30T05:07:15.269Z,85.40
2019-01-30T05:09:42.771Z,117.10
2019-01-30T05:12:10.314Z,113.00
2019-01-30T05:14:37.812Z,115.20
2019-01-30T05:17:05.622Z,115.43
2019-01-30T05:19:33.137Z,119.07
2019-01-30T05:22:00.635Z,143.20
2019-01-30T05:24:28.142Z,148.63
2019-01-30T05:26:55.677Z,174.97
2019-01-30T05:29:23.307Z,238.67
2019-01-30T05:32:00.892Z,244.83
2019-01-30T05:34:20.199Z,267.73
2019-01-30T05:36:47.706Z,290.43
2019-01-30T05:39:15.281Z,280.37
2019-01-30T05:41:42.877Z,278.63
2019-01-30T05:44:10.405Z,305.93
2019-01-30T05:46:37.959Z,263.63
2019-01-30T05:49:05.468Z,273.73
2019-01-30T05:51:32.975Z,221.33
2019-01-30T05:54:00.520Z,230.67
2019-01-30T05:56:28.016Z,190.93
2019-01-30T05:58:55.511Z,172.90
2019-01-30T06:01:23.121Z,172.70
2019-01-30T06:03:50.715Z,166.00
2019-01-30T06:06:18.222Z,150.90
2019-01-30T06:08:45.779Z,158.13
2019-01-30T06:11:13.274Z,155.70
2019-01-30T06:13:40.797Z,175.67
2019-01-30T06:16:08.342Z,173.13
2019-01-30T06:18:35.901Z,167.33
2019-01-30T06:21:03.389Z,163.67
2019-01-30T06:23:30.941Z,126.37
2019-01-30T06:25:58.511Z,123.13
2019-01-30T06:28:29.165Z,104.73
2019-01-30T06:30:55.317Z,114.23
2019-01-30T06:33:22.835Z,106.23
2019-01-30T06:35:50.345Z,114.37
2019-01-30T06:38:17.912Z,120.50
2019-01-30T06:40:45.418Z,120.30
2019-01-30T06:43:13.003Z,125.10
2019-01-30T06:45:40.591Z,122.33
2019-01-30T06:48:08.217Z,123.53
2019-01-30T06:50:35.715Z,136.13
2019-01-30T06:53:03.526Z,122.70
2019-01-30T06:55:31.041Z,123.90
2019-01-30T06:57:58.602Z,119.80
2019-01-30T07:00:26.553Z,155.70
2019-01-30T07:02:56.109Z,133.17
2019-01-30T07:05:23.678Z,139.73
2019-01-30T07:07:51.165Z,129.87
2019-01-30T07:10:20.833Z,141.23
2019-01-30T07:12:48.338Z,148.13
2019-01-30T07:15:15.883Z,161.53
2019-01-30T07:17:43.365Z,166.63
2019-01-30T07:20:11.478Z,162.97
2019-01-30T07:22:39.105Z,145.30
2019-01-30T07:25:08.041Z,133.20
2019-01-30T07:27:35.541Z,141.60
2019-01-30T07:30:05.157Z,133.40
2019-01-30T07:32:41.918Z,125.70
2019-01-30T07:35:01.992Z,122.47
2019-01-30T07:37:29.573Z,124.87
2019-01-30T07:39:57.065Z,129.43
2019-01-30T07:42:24.589Z,132.47
2019-01-30T07:44:52.137Z,137.53
2019-01-30T07:47:19.653Z,131.60
2019-01-30T07:49:47.153Z,141.07
2019-01-30T07:52:14.709Z,129.83
2019-01-30T07:54:42.263Z,135.47
2019-01-30T07:57:09.765Z,126.70
2019-01-30T07:59:37.316Z,123.77
2019-01-30T08:02:04.825Z,118.47
2019-01-30T08:04:32.341Z,106.63
2019-01-30T08:07:02.842Z,103.27
2019-01-30T08:09:29.605Z,99.07
2019-01-30T08:11:57.101Z,91.77
2019-01-30T08:14:24.701Z,98.07
2019-01-30T08:16:52.190Z,86.60
2019-01-30T08:19:19.679Z,92.17
2019-01-30T08:21:47.313Z,104.33
2019-01-30T08:24:15.020Z,95.27
2019-01-30T08:26:42.650Z,92.37
2019-01-30T08:29:10.396Z,77.97
2019-01-30T08:31:38.040Z,102.90
2019-01-30T08:34:05.567Z,95.97
2019-01-30T08:36:33.061Z,97.30
2019-01-30T08:39:00.648Z,108.63
2019-01-30T08:41:28.173Z,113.50
2019-01-30T08:43:57.966Z,117.23
2019-01-30T08:46:24.987Z,110.53
2019-01-30T08:48:52.506Z,122.07
2019-01-30T08:51:20.007Z,101.57
2019-01-30T08:53:47.494Z,108.20
2019-01-30T08:56:15.033Z,112.47
2019-01-30T08:58:42.533Z,94.60
2019-01-30T09:01:10.243Z,99.97
2019-01-30T09:03:37.766Z,84.97
2019-01-30T09:06:05.301Z,93.53
2019-01-30T09:08:32.781Z,86.17
2019-01-30T09:11:00.325Z,84.33
2019-01-30T09:13:27.819Z,89.53
2019-01-30T09:15:55.372Z,88.57
2019-01-30T09:18:22.957Z,85.20
2019-01-30T09:20:50.476Z,88.03
2019-01-30T09:23:17.988Z,96.03
2019-01-30T09:25:45.531Z,93.57
2019-01-30T09:28:13.065Z,91.40
2019-01-30T09:30:40.725Z,84.63
2019-01-30T09:33:10.001Z,87.10
2019-01-30T09:35:37.486Z,89.63
2019-01-30T09:38:05.333Z,101.30
2019-01-30T09:40:32.853Z,83.23
2019-01-30T09:43:00.405Z,85.23
2019-01-30T09:45:27.989Z,84.37
2019-01-30T09:47:55.529Z,91.00
2019-01-30T09:50:23.286Z,98.23
2019-01-30T09:52:51.061Z,96.47
2019-01-30T09:55:18.693Z,90.87
2019-01-30T09:57:46.196Z,95.93
2019-01-30T10:00:22.661Z,89.30
2019-01-30T10:02:50.154Z,89.20
2019-01-30T10:05:17.677Z,89.47
2019-01-30T10:07:45.223Z,97.20
2019-01-30T10:10:16.066Z,87.70
2019-01-30T10:12:43.543Z,81.23
2019-01-30T10:15:12.804Z,84.10
2019-01-30T10:17:40.404Z,78.23
2019-01-30T10:20:12.197Z,84.20
2019-01-30T10:22:39.780Z,85.00
2019-01-30T10:25:07.604Z,88.23
2019-01-30T10:27:35.124Z,84.10
2019-01-30T10:30:03.467Z,91.70
2019-01-30T10:32:31.053Z,95.30
2019-01-30T10:34:58.584Z,93.97
2019-01-30T10:37:26.125Z,104.13
2019-01-30T10:39:53.657Z,87.07
2019-01-30T10:42:21.156Z,84.47
2019-01-30T10:44:48.704Z,90.70
2019-01-30T10:47:16.415Z,91.43
2019-01-30T10:49:43.943Z,86.97
2019-01-30T10:52:11.492Z,104.33
2019-01-30T10:54:39.025Z,97.50
2019-01-30T10:57:06.557Z,92.93
2019-01-30T10:59:34.043Z,105.50
2019-01-30T11:02:01.536Z,109.50
2019-01-30T11:04:29.089Z,102.93
2019-01-30T11:06:56.585Z,113.13
2019-01-30T11:09:24.118Z,134.43
2019-01-30T11:11:51.652Z,122.57
2019-01-30T11:14:19.174Z,110.37
2019-01-30T11:16:46.710Z,118.10
2019-01-30T11:19:14.225Z,104.63
2019-01-30T11:21:41.748Z,122.87
2019-01-30T11:24:09.304Z,105.67
2019-01-30T11:26:36.839Z,104.37
2019-01-30T11:29:04.338Z,104.53
2019-01-30T11:31:31.894Z,106.77
2019-01-30T11:34:07.353Z,102.80
2019-01-30T11:36:28.783Z,98.60
2019-01-30T11:38:56.284Z,106.97
2019-01-30T11:41:23.837Z,99.00
2019-01-30T11:43:51.348Z,89.00
2019-01-30T11:46:19.312Z,100.77
2019-01-30T11:48:55.998Z,95.97
2019-01-30T11:51:17.992Z,80.30
2019-01-30T11:53:45.514Z,77.33
2019-01-30T11:56:13.066Z,86.23
2019-01-30T11:58:40.632Z,80.97
2019-01-30T12:01:08.156Z,84.77
2019-01-30T12:03:35.733Z,81.93
2019-01-30T12:06:03.380Z,79.63
2019-01-30T12:08:31.003Z,84.70
2019-01-30T12:10:58.496Z,86.40
2019-01-30T12:13:26.037Z,82.57
2019-01-30T12:15:53.565Z,86.47
2019-01-30T12:18:21.144Z,88.63
2019-01-30T12:20:48.684Z,85.53
2019-01-30T12:23:16.212Z,93.37
2019-01-30T12:25:43.786Z,87.47
2019-01-30T12:28:11.296Z,97.23
2019-01-30T12:30:38.803Z,96.30
2019-01-30T12:33:06.400Z,88.67
2019-01-30T12:35:33.922Z,84.53
2019-01-30T12:38:01.467Z,93.13
2019-01-30T12:40:29.198Z,91.87
2019-01-30T12:42:56.749Z,104.67
2019-01-30T12:45:26.728Z,97.60
2019-01-30T12:47:54.574Z,84.97
2019-01-30T12:50:22.190Z,95.33
2019-01-30T12:52:49.675Z,95.67
2019-01-30T12:55:17.254Z,90.13
2019-01-30T12:57:44.784Z,96.87
2019-01-30T13:00:16.733Z,97.33
2019-01-30T13:02:44.475Z,98.70
2019-01-30T13:05:12.491Z,99.63
2019-01-30T13:07:40.024Z,96.17
2019-01-30T13:10:08.208Z,108.43
2019-01-30T13:12:35.777Z,103.80
2019-01-30T13:15:05.322Z,110.87
2019-01-30T13:17:32.862Z,104.80
2019-01-30T13:20:00.529Z,93.67
2019-01-30T13:22:27.999Z,100.80
2019-01-30T13:24:55.568Z,120.23
2019-01-30T13:27:23.122Z,104.93
2019-01-30T13:29:50.640Z,100.40
2019-01-30T13:32:18.239Z,90.13
2019-01-30T13:34:48.949Z,115.00
2019-01-30T13:37:15.077Z,105.33
2019-01-30T13:39:42.677Z,113.30
2019-01-30T13:42:10.200Z,103.60
2019-01-30T13:44:37.820Z,105.90
2019-01-30T13:47:05.646Z,119.00
2019-01-30T13:49:33.145Z,113.90
2019-01-30T13:52:00.743Z,115.13
2019-01-30T13:54:28.258Z,115.83
2019-01-30T13:56:55.784Z,118.83
2019-01-30T13:59:23.365Z,121.07
2019-01-30T14:01:50.981Z,117.57
2019-01-30T14:04:18.500Z,101.33
2019-01-30T14:06:46.076Z,97.53
2019-01-30T14:09:13.609Z,102.33
2019-01-30T14:11:41.118Z,110.63
2019-01-30T14:14:08.670Z,101.87
2019-01-30T14:16:36.237Z,99.90
2019-01-30T14:19:04.076Z,109.97
2019-01-30T14:21:31.606Z,107.73
2019-01-30T14:24:00.521Z,112.63
2019-01-30T14:26:28.040Z,100.27
2019-01-30T14:28:55.515Z,109.87
2019-01-30T14:31:23.103Z,118.60
2019-01-30T14:33:50.622Z,115.23
2019-01-30T14:36:18.097Z,128.93
2019-01-30T14:41:30.995Z,132.03
2019-01-30T14:43:58.498Z,127.93
2019-01-30T14:46:26.018Z,121.47
2019-01-30T14:48:53.581Z,127.07
2019-01-30T14:51:21.099Z,138.23
2019-01-30T14:53:48.615Z,154.47
2019-01-30T14:56:16.160Z,134.30
2019-01-30T14:58:43.707Z,134.67
2019-01-30T15:01:11.242Z,143.20
2019-01-30T15:03:38.763Z,186.97
2019-01-30T15:06:06.250Z,144.87
2019-01-30T15:08:34.036Z,140.17
2019-01-30T15:11:01.570Z,140.67
2019-01-30T15:13:29.045Z,139.40
2019-01-30T15:15:56.588Z,151.50
2019-01-30T15:18:24.131Z,152.00
2019-01-30T15:20:51.711Z,171.17
2019-01-30T15:23:19.354Z,165.83
2019-01-30T15:25:46.920Z,158.37
2019-01-30T15:28:14.454Z,146.63
2019-01-30T15:30:46.454Z,161.70
2019-01-30T15:33:14.217Z,146.70
2019-01-30T15:35:41.751Z,152.03
2019-01-30T15:38:11.898Z,147.53
2019-01-30T15:40:39.486Z,142.53
2019-01-30T15:43:07.125Z,157.77
2019-01-30T15:45:34.684Z,148.43
2019-01-30T15:48:02.232Z,149.03
2019-01-30T15:50:30.958Z,140.87
2019-01-30T15:52:59.688Z,144.13
2019-01-30T15:55:27.421Z,154.83
2019-01-30T15:57:57.496Z,160.50
2019-01-30T16:00:30.756Z,155.20
2019-01-30T16:02:58.283Z,154.93
2019-01-30T16:05:25.814Z,165.00
2019-01-30T16:07:53.391Z,155.63
2019-01-30T16:10:20.932Z,151.87
2019-01-30T16:12:48.476Z,157.63
2019-01-30T16:15:22.782Z,160.30
2019-01-30T16:17:50.425Z,180.10
2019-01-30T16:20:18.043Z,172.77
2019-01-30T16:22:45.604Z,154.10
2019-01-30T16:25:13.123Z,164.73
2019-01-30T16:27:40.675Z,167.50
2019-01-30T16:30:12.676Z,155.00
2019-01-30T16:32:40.247Z,153.10
2019-01-30T16:35:10.323Z,165.90
2019-01-30T16:37:37.896Z,183.17
2019-01-30T16:40:06.777Z,166.87
2019-01-30T16:42:34.576Z,168.17
2019-01-30T16:45:02.700Z,163.17
2019-01-30T16:47:30.376Z,171.73
2019-01-30T16:49:57.936Z,166.20
2019-01-30T16:52:25.472Z,169.43
2019-01-30T16:54:53.017Z,151.47
2019-01-30T16:57:20.594Z,161.27
2019-01-30T16:59:49.202Z,171.50
2019-01-30T17:02:16.702Z,208.73
2019-01-30T17:04:44.224Z,232.97
2019-01-30T17:07:11.802Z,192.90
2019-01-30T17:09:39.311Z,158.23
2019-01-30T17:12:06.796Z,177.30
2019-01-30T17:14:34.362Z,202.67
2019-01-30T17:17:01.920Z,191.73
2019-01-30T17:19:29.445Z,189.63
2019-01-30T17:21:57.572Z,156.93
2019-01-30T17:24:25.080Z,160.30
2019-01-30T17:26:52.572Z,150.93
2019-01-30T17:29:22.731Z,214.87
2019-01-30T17:31:49.456Z,226.67
2019-01-30T17:34:16.941Z,219.90
2019-01-30T17:36:44.497Z,189.80
2019-01-30T17:39:11.991Z,158.73
2019-01-30T17:41:39.525Z,150.80
2019-01-30T17:44:07.073Z,168.90
2019-01-30T17:46:34.643Z,169.80
2019-01-30T17:49:02.137Z,181.67
2019-01-30T17:51:29.651Z,186.53
2019-01-30T17:53:57.215Z,193.33
2019-01-30T17:56:24.727Z,170.50
2019-01-30T17:58:52.354Z,184.93
2019-01-30T18:01:20.056Z,167.30
2019-01-30T18:03:47.563Z,186.00
2019-01-30T18:06:15.079Z,169.20
2019-01-30T18:08:42.628Z,157.40
2019-01-30T18:11:10.130Z,176.37
2019-01-30T18:13:37.631Z,182.63
2019-01-30T18:16:05.374Z,151.93
2019-01-30T18:18:32.936Z,139.70
2019-01-30T18:21:00.447Z,156.17
2019-01-30T18:23:27.998Z,163.57
2019-01-30T18:25:57.133Z,166.83
2019-01-30T18:28:24.638Z,155.70
2019-01-30T18:30:52.153Z,161.20
2019-01-30T18:33:19.703Z,157.83
2019-01-30T18:35:47.203Z,164.33
2019-01-30T18:38:14.889Z,164.87
2019-01-30T18:40:42.450Z,149.83
2019-01-30T18:43:09.955Z,170.93
2019-01-30T18:45:37.467Z,149.93
2019-01-30T18:48:05.626Z,156.63
2019-01-30T18:50:33.154Z,151.33
2019-01-30T18:53:00.839Z,154.93
2019-01-30T18:55:31.023Z,147.03
2019-01-30T18:57:58.408Z,149.07
2019-01-30T19:00:29.245Z,151.53
2019-01-30T19:02:58.486Z,145.47
2019-01-30T19:05:26.362Z,161.67
2019-01-30T19:07:53.881Z,158.83
2019-01-30T19:10:21.415Z,162.90
2019-01-30T19:12:48.974Z,138.50
2019-01-30T19:15:18.416Z,146.73
2019-01-30T19:17:46.106Z,145.27
2019-01-30T19:20:16.518Z,150.33
2019-01-30T19:22:44.071Z,156.03
2019-01-30T19:25:14.442Z,141.70
2019-01-30T19:27:42.195Z,145.07
2019-01-30T19:30:13.804Z,152.47
2019-01-30T19:32:41.721Z,132.87
2019-01-30T19:35:10.672Z,125.77
2019-01-30T19:37:38.122Z,131.17
2019-01-30T19:40:09.431Z,133.73
2019-01-30T19:42:36.901Z,141.07
2019-01-30T19:45:08.307Z,166.07
2019-01-30T19:47:35.940Z,146.27
2019-01-30T19:50:06.394Z,173.87
2019-01-30T19:52:33.951Z,155.27
2019-01-30T19:55:04.281Z,153.50
2019-01-30T19:57:34.138Z,157.63
2019-01-30T20:00:02.263Z,151.13
2019-01-30T20:02:29.763Z,166.13
2019-01-30T20:04:57.583Z,157.07
2019-01-30T20:07:25.415Z,153.87
2019-01-30T20:09:52.961Z,179.20
2019-01-30T20:12:20.499Z,196.00
2019-01-30T20:14:48.797Z,174.53
2019-01-30T20:17:17.475Z,183.47
2019-01-30T20:19:49.197Z,162.97
2019-01-30T20:22:16.784Z,171.00
2019-01-30T20:24:45.443Z,138.70
2019-01-30T20:27:12.935Z,127.87
2019-01-30T20:29:40.871Z,120.37
2019-01-30T20:32:10.393Z,110.73
2019-01-30T20:34:38.039Z,118.03
2019-01-30T20:37:06.058Z,124.13
2019-01-30T20:39:33.808Z,122.17
2019-01-30T20:42:01.513Z,102.27
2019-01-30T20:44:29.399Z,119.47
2019-01-30T20:46:59.722Z,136.00
2019-01-30T20:49:28.685Z,150.13
2019-01-30T20:51:56.199Z,158.50
2019-01-30T20:54:23.989Z,128.57
2019-01-30T20:56:51.604Z,135.13
2019-01-30T20:59:20.327Z,121.53
2019-01-30T21:01:47.881Z,135.47
2019-01-30T21:04:15.689Z,118.80
2019-01-30T21:06:43.303Z,117.93
2019-01-30T21:09:12.317Z,117.97
2019-01-30T21:11:40.855Z,114.60
2019-01-30T21:14:11.111Z,114.93
2019-01-30T21:16:42.547Z,134.43
2019-01-30T21:19:10.041Z,121.50
2019-01-30T21:21:37.608Z,135.73
2019-01-30T21:24:05.564Z,125.43
2019-01-30T21:26:36.619Z,123.63
2019-01-30T21:29:04.525Z,117.67
2019-01-30T21:31:32.051Z,115.87
2019-01-30T21:34:02.291Z,133.43
2019-01-30T21:36:29.831Z,119.10
2019-01-30T21:38:57.351Z,140.23
2019-01-30T21:41:24.850Z,130.23
2019-01-30T21:43:52.509Z,136.57
2019-01-30T21:46:20.698Z,136.77
2019-01-30T21:48:48.270Z,131.57
2019-01-30T21:51:18.477Z,128.77
2019-01-30T21:53:46.318Z,127.47
2019-01-30T21:56:14.751Z,129.47
2019-01-30T21:58:42.258Z,139.63
2019-01-30T22:01:09.763Z,125.93
2019-01-30T22:03:37.305Z,133.43
2019-01-30T22:06:05.351Z,132.97
2019-01-30T22:08:35.765Z,135.23
2019-01-30T22:11:02.211Z,160.10
2019-01-30T22:13:30.105Z,154.70
2019-01-30T22:15:57.641Z,145.80
2019-01-30T22:18:25.216Z,144.93
2019-01-30T22:20:52.701Z,133.03
2019-01-30T22:23:20.202Z,142.93
2019-01-30T22:25:47.735Z,151.57
2019-01-30T22:28:15.251Z,138.17
2019-01-30T22:30:42.808Z,150.53
2019-01-30T22:33:10.578Z,148.63
2019-01-30T22:35:38.101Z,137.00
2019-01-30T22:38:12.404Z,134.87
2019-01-30T22:40:34.946Z,127.20
2019-01-30T22:43:02.451Z,123.77
2019-01-30T22:45:30.011Z,120.70
2019-01-30T22:47:57.547Z,135.37
2019-01-30T22:50:25.026Z,146.70
2019-01-30T22:52:52.537Z,137.43
2019-01-30T22:55:21.240Z,136.13
2019-01-30T22:57:50.938Z,149.40
2019-01-30T23:00:51.043Z,150.87
2019-01-30T23:03:19.645Z,139.07
2019-01-30T23:06:31.101Z,145.00
2019-01-30T23:09:26.434Z,143.43
2019-01-30T23:12:33.245Z,145.60
2019-01-30T23:15:16.729Z,140.30
2019-01-30T23:18:28.377Z,160.10
2019-01-30T23:21:00.825Z,130.00
2019-01-30T23:23:52.217Z,168.47
2019-01-30T23:26:30.259Z,129.70
2019-01-30T23:29:36.068Z,142.23
2019-01-30T23:32:24.428Z,137.60
2019-01-30T23:35:12.964Z,144.47
2019-01-30T23:38:22.073Z,127.60
2019-01-30T23:41:23.474Z,127.80
2019-01-30T23:44:11.235Z,126.47
2019-01-30T23:47:21.723Z,131.27
2019-01-30T23:50:18.722Z,126.63
2019-01-30T23:53:30.328Z,118.13
2019-01-30T23:56:23.153Z,124.03
2019-01-30T23:59:09.311Z,120.90
